Terminal Aerodrome Forecast
Issued by NWS

Home | Current Version | Previous Version | Text Only | Print | Product List | Glossary Off
Versions: 1 2 3 4 5 6 7 8 9 10 11 12 13 14 15

000
FTUS43 KOAX 201157 CCA
TAFCDR
TAF COR
KCDR 201157Z 2012/2112 VRB05KT P6SM SCT002
     FM201400 00000KT P6SM BKN250
     FM201600 12008KT P6SM BKN150
     FM202200 14006KT P6SM SCT200
     FM210400 14008KT P6SM SKC
     FM210500 15007KT P6SM SKC=

USA.gov is the U.S. government's official web portal to all federal, state and local government web resources and services.